createdAt,value
2018-08-22T00:00:05.712Z,66.58
2018-08-22T00:02:34.187Z,66.97
2018-08-22T00:05:02.333Z,66.88
2018-08-22T00:07:30.623Z,66.79
2018-08-22T00:09:58.975Z,66.70
2018-08-22T00:12:27.679Z,67.37
2018-08-22T00:14:55.824Z,67.41
2018-08-22T00:17:24.279Z,67.06
2018-08-22T00:19:52.424Z,67.51
2018-08-22T00:22:20.653Z,68.28
2018-08-22T00:24:49.001Z,68.50
2018-08-22T00:27:17.631Z,67.57
2018-08-22T00:29:45.925Z,68.16
2018-08-22T00:32:14.703Z,68.39
2018-08-22T00:34:42.849Z,67.67
2018-08-22T00:37:11.274Z,68.01
2018-08-22T00:39:39.536Z,67.86
2018-08-22T00:42:07.684Z,67.54
2018-08-22T00:44:35.940Z,67.91
2018-08-22T00:47:05.091Z,67.49
2018-08-22T00:49:33.243Z,67.90
2018-08-22T00:52:01.615Z,67.53
2018-08-22T00:54:29.980Z,67.44
2018-08-22T00:56:58.391Z,67.94
2018-08-22T00:59:26.773Z,67.92
2018-08-22T01:01:55.132Z,67.77
2018-08-22T01:04:30.022Z,67.65
2018-08-22T01:06:58.360Z,68.33
2018-08-22T01:09:26.482Z,68.27
2018-08-22T01:11:54.915Z,68.30
2018-08-22T01:14:23.329Z,68.31
2018-08-22T01:16:57.956Z,67.91
2018-08-22T01:19:26.207Z,68.11
2018-08-22T01:21:54.910Z,68.12
2018-08-22T01:24:24.013Z,67.63
2018-08-22T01:26:52.988Z,67.78
2018-08-22T01:29:21.459Z,68.28
2018-08-22T01:31:49.989Z,67.57
2018-08-22T01:34:18.460Z,67.60
2018-08-22T01:36:46.596Z,67.15
2018-08-22T01:39:15.023Z,67.48
2018-08-22T01:41:43.357Z,67.89
2018-08-22T01:44:11.529Z,67.96
2018-08-22T01:46:39.671Z,67.69
2018-08-22T01:49:08.336Z,68.41
2018-08-22T01:51:36.477Z,68.19
2018-08-22T01:54:05.409Z,68.62
2018-08-22T01:56:33.957Z,68.61
2018-08-22T01:59:02.430Z,68.54
2018-08-22T02:01:30.567Z,68.37
2018-08-22T02:03:58.709Z,67.75
2018-08-22T02:06:27.052Z,68.62
2018-08-22T02:08:55.551Z,68.00
2018-08-22T02:11:23.744Z,67.89
2018-08-22T02:13:52.267Z,68.22
2018-08-22T02:16:20.448Z,68.65
2018-08-22T02:18:48.580Z,68.13
2018-08-22T02:21:17.185Z,68.07
2018-08-22T02:23:45.316Z,68.55
2018-08-22T02:26:13.445Z,68.68
2018-08-22T02:28:41.584Z,67.82
2018-08-22T02:31:10.001Z,68.67
2018-08-22T02:33:38.136Z,68.18
2018-08-22T02:36:06.553Z,68.60
2018-08-22T02:38:34.692Z,68.60
2018-08-22T02:41:02.893Z,68.96
2018-08-22T02:43:31.053Z,68.99
2018-08-22T02:45:59.213Z,68.94
2018-08-22T02:48:27.353Z,68.01
2018-08-22T02:50:55.524Z,68.09
2018-08-22T02:53:24.150Z,68.59
2018-08-22T02:55:52.292Z,69.16
2018-08-22T02:58:20.537Z,68.33
2018-08-22T03:00:49.109Z,68.23
2018-08-22T03:03:17.543Z,68.01
2018-08-22T03:05:45.672Z,68.86
2018-08-22T03:08:14.109Z,68.97
2018-08-22T03:10:42.453Z,68.22
2018-08-22T03:13:10.882Z,68.78
2018-08-22T03:15:39.041Z,68.46
2018-08-22T03:18:07.333Z,68.95
2018-08-22T03:20:35.475Z,68.59
2018-08-22T03:23:03.802Z,68.99
2018-08-22T03:25:31.937Z,68.99
2018-08-22T03:28:00.081Z,68.60
2018-08-22T03:30:28.211Z,69.16
2018-08-22T03:32:56.533Z,69.08
2018-08-22T03:35:25.013Z,69.72
2018-08-22T03:37:53.154Z,69.51
2018-08-22T03:40:21.864Z,68.76
2018-08-22T03:42:50.413Z,69.23
2018-08-22T03:45:18.550Z,68.70
2018-08-22T03:47:46.705Z,68.79
2018-08-22T03:50:15.105Z,69.23
2018-08-22T03:52:43.428Z,69.46
2018-08-22T03:55:11.561Z,69.83
2018-08-22T03:57:40.926Z,69.06
2018-08-22T04:00:09.822Z,69.20
2018-08-22T04:02:37.968Z,69.22
2018-08-22T04:05:06.721Z,69.12
2018-08-22T04:07:34.884Z,68.68
2018-08-22T04:10:03.377Z,69.46
2018-08-22T04:12:31.518Z,69.34
2018-08-22T04:15:00.143Z,69.20
2018-08-22T04:17:38.613Z,69.17
2018-08-22T04:20:08.697Z,68.91
2018-08-22T04:22:38.576Z,69.82
2018-08-22T04:25:08.089Z,69.11
2018-08-22T04:27:37.246Z,68.38
2018-08-22T04:30:06.754Z,68.99
2018-08-22T04:32:35.236Z,69.01
2018-08-22T04:35:03.368Z,69.08
2018-08-22T04:37:31.500Z,68.69
2018-08-22T04:40:00.157Z,68.45
2018-08-22T04:42:28.294Z,68.65
2018-08-22T04:44:56.850Z,68.90
2018-08-22T04:47:25.197Z,69.02
2018-08-22T04:49:53.905Z,68.84
2018-08-22T04:52:22.377Z,68.54
2018-08-22T04:54:50.520Z,69.10
2018-08-22T04:57:19.335Z,69.34
2018-08-22T04:59:47.497Z,68.86
2018-08-22T05:02:16.009Z,69.43
2018-08-22T05:04:44.145Z,69.45
2018-08-22T05:07:12.573Z,68.92
2018-08-22T05:09:41.041Z,70.39
2018-08-22T05:12:09.280Z,69.27
2018-08-22T05:14:37.440Z,69.38
2018-08-22T05:17:06.052Z,69.85
2018-08-22T05:19:34.193Z,69.43
2018-08-22T05:22:02.354Z,70.48
2018-08-22T05:24:30.510Z,70.22
2018-08-22T05:26:59.022Z,70.40
2018-08-22T05:29:27.172Z,69.57
2018-08-22T05:31:58.058Z,70.03
2018-08-22T05:34:26.345Z,70.70
2018-08-22T05:36:54.509Z,70.66
2018-08-22T05:39:22.945Z,70.38
2018-08-22T05:41:51.574Z,70.65
2018-08-22T05:44:19.718Z,71.38
2018-08-22T05:46:48.273Z,70.70
2018-08-22T05:49:16.713Z,70.78
2018-08-22T05:51:44.991Z,71.00
2018-08-22T05:54:13.435Z,71.26
2018-08-22T05:56:41.909Z,71.01
2018-08-22T05:59:10.471Z,70.62
2018-08-22T06:01:38.637Z,70.82
2018-08-22T06:04:07.430Z,71.70
2018-08-22T06:06:35.582Z,71.75
2018-08-22T06:09:04.437Z,71.33
2018-08-22T06:11:33.034Z,71.36
2018-08-22T06:14:01.206Z,71.12
2018-08-22T06:16:29.360Z,69.99
2018-08-22T06:18:57.885Z,70.61
2018-08-22T06:21:26.547Z,71.45
2018-08-22T06:23:55.267Z,70.44
2018-08-22T06:26:23.857Z,70.00
2018-08-22T06:28:52.005Z,70.39
2018-08-22T06:31:20.489Z,69.96
2018-08-22T06:33:48.688Z,69.87
2018-08-22T06:36:16.862Z,70.03
2018-08-22T06:38:45.421Z,70.76
2018-08-22T06:41:13.729Z,70.36
2018-08-22T06:43:41.894Z,70.22
2018-08-22T06:46:10.392Z,68.87
2018-08-22T06:48:38.574Z,69.01
2018-08-22T06:51:06.899Z,69.28
2018-08-22T06:53:35.412Z,68.35
2018-08-22T06:56:03.564Z,68.58
2018-08-22T06:58:32.041Z,67.98
2018-08-22T07:01:00.240Z,67.20
2018-08-22T07:03:28.385Z,67.33
2018-08-22T07:05:56.692Z,66.66
2018-08-22T07:08:25.054Z,66.15
2018-08-22T07:10:53.676Z,65.33
2018-08-22T07:13:21.830Z,62.92
2018-08-22T07:15:50.621Z,62.65
2018-08-22T07:18:19.409Z,62.15
2018-08-22T07:20:47.912Z,61.06
2018-08-22T07:23:17.271Z,61.68
2018-08-22T07:25:45.557Z,60.94
2018-08-22T07:28:13.707Z,59.66
2018-08-22T07:30:41.857Z,59.99
2018-08-22T07:33:10.373Z,59.75
2018-08-22T07:35:38.781Z,58.37
2018-08-22T07:38:07.468Z,58.37
2018-08-22T07:40:36.213Z,56.71
2018-08-22T07:43:06.169Z,56.90
2018-08-22T07:45:34.312Z,56.37
2018-08-22T07:48:02.821Z,56.00
2018-08-22T07:50:31.762Z,54.80
2018-08-22T07:53:03.861Z,53.84
2018-08-22T07:55:36.293Z,52.89
2018-08-22T07:58:06.683Z,52.33
2018-08-22T08:00:35.018Z,51.78
2018-08-22T08:03:03.620Z,51.35
2018-08-22T08:05:32.313Z,49.54
2018-08-22T08:08:00.637Z,49.79
2018-08-22T08:10:33.894Z,49.16
2018-08-22T08:13:03.364Z,49.31
2018-08-22T08:15:31.521Z,48.53
2018-08-22T08:18:00.059Z,48.88
2018-08-22T08:20:28.325Z,47.25
2018-08-22T08:22:56.473Z,47.44
2018-08-22T08:25:25.560Z,47.18
2018-08-22T08:27:54.110Z,45.63
2018-08-22T08:30:22.437Z,46.78
2018-08-22T08:32:50.597Z,45.37
2018-08-22T08:35:19.005Z,46.09
2018-08-22T08:37:47.159Z,44.67
2018-08-22T08:40:15.512Z,44.75
2018-08-22T08:42:43.693Z,43.15
2018-08-22T08:45:12.526Z,44.53
2018-08-22T08:47:40.768Z,42.70
2018-08-22T08:50:09.911Z,44.17
2018-08-22T08:52:38.229Z,42.82
2018-08-22T08:55:06.519Z,41.47
2018-08-22T08:57:34.876Z,43.02
2018-08-22T09:00:03.610Z,41.33
2018-08-22T09:02:31.962Z,41.51
2018-08-22T09:05:00.669Z,38.71
2018-08-22T09:07:28.981Z,40.07
2018-08-22T09:09:57.495Z,39.56
2018-08-22T09:12:25.797Z,39.68
2018-08-22T09:17:23.034Z,38.44
2018-08-22T09:19:51.333Z,40.11
2018-08-22T09:22:19.580Z,40.55
2018-08-22T09:24:48.156Z,39.42
2018-08-22T09:27:16.499Z,39.95
2018-08-22T09:29:44.655Z,39.94
2018-08-22T09:32:12.814Z,39.07
2018-08-22T09:34:41.077Z,38.41
2018-08-22T09:37:09.529Z,38.61
2018-08-22T09:39:37.729Z,36.92
2018-08-22T09:42:06.486Z,37.58
2018-08-22T09:44:34.797Z,37.13
2018-08-22T09:47:02.959Z,37.36
2018-08-22T09:49:31.210Z,35.80
2018-08-22T09:51:59.548Z,35.99
2018-08-22T09:54:27.739Z,37.16
2018-08-22T09:56:56.189Z,36.08
2018-08-22T09:59:24.616Z,37.11
2018-08-22T10:01:52.784Z,37.78
2018-08-22T10:04:21.242Z,36.41
2018-08-22T10:06:50.251Z,36.10
2018-08-22T10:09:24.318Z,36.16
2018-08-22T10:11:52.469Z,36.25
2018-08-22T10:14:20.815Z,35.72
2018-08-22T10:16:49.384Z,35.23
2018-08-22T10:19:17.539Z,34.54
2018-08-22T10:21:46.586Z,35.86
2018-08-22T10:24:15.513Z,35.02
2018-08-22T10:26:43.667Z,34.97
2018-08-22T10:29:11.806Z,35.45
2018-08-22T10:31:40.343Z,34.85
2018-08-22T10:34:09.636Z,34.68
2018-08-22T10:36:37.777Z,35.55
2018-08-22T10:39:08.621Z,35.35
2018-08-22T10:41:37.150Z,35.05
2018-08-22T10:44:06.111Z,35.18
2018-08-22T10:46:34.615Z,35.09
2018-08-22T10:49:03.281Z,34.45
2018-08-22T10:51:31.677Z,34.50
2018-08-22T10:54:00.124Z,34.88
2018-08-22T10:56:28.804Z,35.05
2018-08-22T10:58:56.962Z,34.63
2018-08-22T11:01:25.956Z,33.36
2018-08-22T11:03:54.189Z,31.92
2018-08-22T11:06:22.933Z,33.80
2018-08-22T11:08:51.601Z,33.01
2018-08-22T11:11:20.364Z,33.51
2018-08-22T11:13:48.533Z,33.35
2018-08-22T11:16:16.703Z,33.47
2018-08-22T11:18:45.679Z,33.08
2018-08-22T11:21:25.148Z,33.91
2018-08-22T11:24:04.716Z,31.85
2018-08-22T11:26:44.499Z,31.88
2018-08-22T11:29:24.321Z,32.70
2018-08-22T11:32:03.873Z,33.29
2018-08-22T11:34:42.380Z,32.26
2018-08-22T11:37:12.401Z,32.72
2018-08-22T11:39:42.308Z,33.27
2018-08-22T11:42:10.505Z,32.20
2018-08-22T11:44:39.377Z,33.38
2018-08-22T11:47:07.801Z,33.42
2018-08-22T11:49:36.053Z,33.32
2018-08-22T11:52:05.921Z,33.29
2018-08-22T11:54:34.322Z,33.20
2018-08-22T11:57:03.308Z,33.20
2018-08-22T11:59:32.141Z,33.21
2018-08-22T12:02:00.686Z,33.14
2018-08-22T12:04:29.333Z,34.27
2018-08-22T12:06:57.837Z,32.62
2018-08-22T12:09:26.630Z,33.19
2018-08-22T12:11:55.476Z,32.25
2018-08-22T12:14:23.990Z,32.19
2018-08-22T12:16:52.283Z,34.10
2018-08-22T12:19:21.264Z,33.60
2018-08-22T12:21:49.784Z,33.75
2018-08-22T12:24:18.970Z,33.36
2018-08-22T12:26:47.110Z,32.00
2018-08-22T12:29:15.603Z,32.17
2018-08-22T12:31:44.113Z,33.27
2018-08-22T12:34:12.245Z,32.95
2018-08-22T12:36:40.400Z,33.50
2018-08-22T12:39:09.533Z,32.72
2018-08-22T12:41:38.052Z,33.14
2018-08-22T12:44:06.818Z,32.46
2018-08-22T12:46:34.987Z,34.09
2018-08-22T12:49:04.236Z,32.34
2018-08-22T12:51:32.565Z,33.18
2018-08-22T12:54:01.403Z,33.29
2018-08-22T12:56:29.572Z,33.16
2018-08-22T12:58:57.744Z,33.97
2018-08-22T13:01:26.058Z,33.14
2018-08-22T13:03:54.215Z,34.12
2018-08-22T13:06:22.744Z,34.66
2018-08-22T13:08:51.253Z,33.65
2018-08-22T13:11:20.125Z,33.70
2018-08-22T13:13:48.968Z,33.51
2018-08-22T13:16:17.469Z,33.59
2018-08-22T13:18:45.621Z,33.10
2018-08-22T13:21:13.921Z,33.54
2018-08-22T13:23:42.073Z,33.62
2018-08-22T13:26:10.829Z,34.51
2018-08-22T13:28:39.004Z,33.97
2018-08-22T13:31:07.445Z,32.88
2018-08-22T13:33:35.758Z,33.98
2018-08-22T13:36:05.501Z,34.31
2018-08-22T13:38:34.142Z,34.63
2018-08-22T13:41:02.641Z,35.07
2018-08-22T13:43:30.811Z,35.46
2018-08-22T13:45:59.701Z,35.04
2018-08-22T13:48:28.160Z,34.72
2018-08-22T13:50:56.610Z,34.79
2018-08-22T13:53:25.804Z,34.80
2018-08-22T13:55:54.215Z,34.77
2018-08-22T13:58:22.879Z,34.84
2018-08-22T14:00:51.037Z,35.08
2018-08-22T14:03:19.312Z,34.48
2018-08-22T14:05:48.857Z,34.38
2018-08-22T14:08:17.298Z,34.54
2018-08-22T14:10:46.150Z,34.76
2018-08-22T14:13:14.765Z,35.35
2018-08-22T14:15:43.277Z,35.14
2018-08-22T14:18:11.860Z,36.15
2018-08-22T14:20:40.415Z,34.79
2018-08-22T14:23:09.158Z,35.62
2018-08-22T14:25:37.705Z,36.54
2018-08-22T14:28:06.735Z,36.77
2018-08-22T14:30:35.501Z,36.09
2018-08-22T14:33:03.662Z,35.50
2018-08-22T14:35:31.821Z,35.39
2018-08-22T14:38:00.007Z,35.88
2018-08-22T14:40:28.673Z,34.78
2018-08-22T14:42:56.905Z,35.19
2018-08-22T14:45:25.177Z,35.58
2018-08-22T14:47:54.250Z,35.57
2018-08-22T14:50:22.710Z,35.68
2018-08-22T14:52:50.872Z,36.40
2018-08-22T14:55:29.360Z,35.77
2018-08-22T14:57:57.536Z,35.53
2018-08-22T15:00:26.029Z,36.81
2018-08-22T15:02:54.648Z,35.59
2018-08-22T15:05:23.159Z,35.99
2018-08-22T15:07:51.801Z,36.00
2018-08-22T15:10:20.566Z,36.86
2018-08-22T15:12:48.920Z,37.12
2018-08-22T15:15:17.530Z,36.83
2018-08-22T15:17:46.002Z,36.49
2018-08-22T15:20:14.468Z,36.88
2018-08-22T15:22:43.275Z,38.55
2018-08-22T15:25:11.893Z,37.63
2018-08-22T15:27:40.050Z,37.88
2018-08-22T15:30:09.261Z,38.67
2018-08-22T15:32:38.015Z,38.86
2018-08-22T15:35:07.167Z,39.20
2018-08-22T15:37:35.573Z,39.15
2018-08-22T15:40:05.520Z,38.91
2018-08-22T15:42:34.646Z,39.60
2018-08-22T15:45:03.433Z,39.26
2018-08-22T15:47:31.584Z,38.62
2018-08-22T15:50:00.280Z,38.96
2018-08-22T15:52:28.806Z,38.70
2018-08-22T15:55:07.613Z,39.53
2018-08-22T15:57:51.110Z,39.78
2018-08-22T16:00:36.250Z,39.12
2018-08-22T16:03:06.686Z,39.95
2018-08-22T16:05:36.729Z,39.76
2018-08-22T16:08:07.071Z,39.97
2018-08-22T16:10:35.645Z,40.24
2018-08-22T16:13:04.008Z,39.87
2018-08-22T16:15:34.777Z,40.37
2018-08-22T16:18:05.663Z,40.65
2018-08-22T16:20:40.705Z,40.05
2018-08-22T16:23:09.610Z,40.79
2018-08-22T16:25:44.149Z,40.59
2018-08-22T16:28:12.981Z,40.05
2018-08-22T16:30:41.441Z,41.32
2018-08-22T16:33:10.221Z,40.80
2018-08-22T16:35:39.086Z,41.50
2018-08-22T16:38:10.229Z,40.85
2018-08-22T16:40:39.900Z,41.08
2018-08-22T16:43:08.428Z,42.33
2018-08-22T16:45:43.170Z,41.67
2018-08-22T16:48:12.748Z,41.82
2018-08-22T16:50:41.272Z,42.59
2018-08-22T16:53:09.581Z,42.51
2018-08-22T16:55:37.729Z,42.73
2018-08-22T16:58:06.712Z,43.42
2018-08-22T17:00:45.638Z,42.56
2018-08-22T17:03:13.784Z,42.80
2018-08-22T17:05:42.953Z,43.20
2018-08-22T17:08:11.597Z,42.43
2018-08-22T17:10:53.657Z,43.91
2018-08-22T17:13:28.396Z,43.34
2018-08-22T17:15:57.595Z,43.03
2018-08-22T17:18:26.982Z,43.23
2018-08-22T17:20:55.521Z,43.37
2018-08-22T17:23:24.214Z,43.80
2018-08-22T17:25:53.068Z,44.15
2018-08-22T17:28:28.579Z,43.58
2018-08-22T17:30:57.278Z,44.03
2018-08-22T17:33:31.820Z,45.11
2018-08-22T17:36:00.084Z,44.38
2018-08-22T17:38:28.306Z,44.66
2018-08-22T17:40:56.464Z,45.80
2018-08-22T17:43:24.846Z,45.32
2018-08-22T17:45:53.081Z,45.31
2018-08-22T17:48:22.140Z,44.68
2018-08-22T17:50:50.749Z,45.17
2018-08-22T17:53:18.955Z,45.42
2018-08-22T17:55:49.205Z,45.27
2018-08-22T17:58:17.688Z,46.63
2018-08-22T18:00:45.845Z,47.64
2018-08-22T18:03:14.178Z,48.39
2018-08-22T18:05:42.894Z,50.40
2018-08-22T18:08:11.698Z,50.71
2018-08-22T18:10:40.498Z,50.53
2018-08-22T18:13:10.463Z,51.34
2018-08-22T18:15:38.858Z,51.84
2018-08-22T18:18:08.233Z,51.76
2018-08-22T18:20:38.732Z,52.13
2018-08-22T18:23:07.625Z,51.67
2018-08-22T18:25:40.491Z,52.07
2018-08-22T18:28:09.796Z,52.87
2018-08-22T18:30:37.956Z,52.96
2018-08-22T18:33:06.444Z,52.90
2018-08-22T18:35:34.698Z,53.78
2018-08-22T18:38:02.876Z,54.39
2018-08-22T18:40:31.429Z,53.70
2018-08-22T18:43:01.828Z,54.58
2018-08-22T18:45:30.621Z,55.07
2018-08-22T18:48:16.038Z,55.17
2018-08-22T18:50:45.733Z,54.81
2018-08-22T18:53:15.587Z,55.98
2018-08-22T18:55:44.201Z,56.20
2018-08-22T18:58:12.653Z,55.88
2018-08-22T19:00:41.170Z,56.33
2018-08-22T19:03:09.332Z,56.14
2018-08-22T19:05:38.201Z,56.53
2018-08-22T19:08:10.416Z,57.07
2018-08-22T19:10:40.824Z,56.33
2018-08-22T19:13:11.856Z,57.04
2018-08-22T19:15:40.293Z,57.29
2018-08-22T19:18:09.764Z,57.52
2018-08-22T19:20:38.744Z,57.74
2018-08-22T19:23:07.477Z,56.99
2018-08-22T19:25:35.660Z,58.34
2018-08-22T19:28:06.053Z,57.16
2018-08-22T19:30:36.713Z,58.28
2018-08-22T19:33:09.916Z,58.83
2018-08-22T19:35:38.770Z,58.80
2018-08-22T19:38:07.632Z,58.95
2018-08-22T19:40:36.817Z,58.60
2018-08-22T19:43:06.625Z,59.11
2018-08-22T19:45:35.736Z,59.24
2018-08-22T19:48:03.893Z,58.75
2018-08-22T19:50:32.388Z,58.92
2018-08-22T19:53:00.563Z,58.55
2018-08-22T19:55:28.977Z,59.04
2018-08-22T19:57:57.825Z,59.60
2018-08-22T20:00:26.364Z,60.16
2018-08-22T20:02:55.457Z,59.67
2018-08-22T20:05:24.571Z,60.52
2018-08-22T20:07:52.741Z,60.22
2018-08-22T20:10:23.890Z,60.18
2018-08-22T20:12:54.888Z,60.21
2018-08-22T20:15:23.441Z,59.72
2018-08-22T20:17:54.767Z,60.42
2018-08-22T20:20:23.270Z,60.10
2018-08-22T20:22:53.217Z,60.39
2018-08-22T20:25:22.356Z,60.71
2018-08-22T20:27:50.530Z,61.46
2018-08-22T20:30:20.356Z,60.87
2018-08-22T20:32:58.585Z,61.93
2018-08-22T20:35:35.928Z,61.71
2018-08-22T20:38:06.552Z,61.64
2018-08-22T20:40:35.360Z,60.69
2018-08-22T20:43:03.544Z,61.42
2018-08-22T20:45:36.521Z,61.09
2018-08-22T20:48:08.661Z,62.00
2018-08-22T20:50:38.966Z,61.96
2018-08-22T20:53:09.049Z,62.57
2018-08-22T20:55:37.263Z,61.66
2018-08-22T20:58:06.262Z,61.74
2018-08-22T21:00:35.746Z,62.40
2018-08-22T21:03:04.323Z,62.75
2018-08-22T21:05:32.583Z,62.81
2018-08-22T21:08:00.899Z,62.56
2018-08-22T21:10:29.298Z,62.93
2018-08-22T21:12:57.685Z,63.34
2018-08-22T21:15:26.395Z,63.09
2018-08-22T21:18:01.243Z,62.93
2018-08-22T21:20:29.401Z,63.05
2018-08-22T21:22:58.115Z,63.04
2018-08-22T21:25:26.312Z,63.34
2018-08-22T21:27:54.987Z,64.09
2018-08-22T21:30:23.704Z,63.48
2018-08-22T21:32:52.688Z,63.96
2018-08-22T21:35:25.946Z,63.58
2018-08-22T21:37:58.964Z,63.83
2018-08-22T21:40:27.550Z,63.96
2018-08-22T21:42:55.717Z,64.66
2018-08-22T21:45:24.440Z,64.37
2018-08-22T21:48:08.142Z,64.65
2018-08-22T21:50:36.302Z,64.63
2018-08-22T21:53:05.375Z,65.09
2018-08-22T21:55:42.248Z,65.49
2018-08-22T21:58:11.872Z,65.87
2018-08-22T22:00:40.025Z,65.08
2018-08-22T22:03:10.296Z,66.17
2018-08-22T22:05:45.362Z,65.69
2018-08-22T22:08:13.913Z,65.67
2018-08-22T22:10:42.754Z,66.18
2018-08-22T22:13:11.989Z,65.81
2018-08-22T22:15:43.582Z,66.80
2018-08-22T22:18:12.071Z,66.41
2018-08-22T22:20:40.750Z,66.73
2018-08-22T22:23:09.317Z,67.39
2018-08-22T22:25:37.608Z,67.48
2018-08-22T22:28:06.275Z,66.87
2018-08-22T22:30:34.956Z,67.24
2018-08-22T22:33:03.284Z,66.78
2018-08-22T22:35:36.804Z,66.64
2018-08-22T22:38:08.702Z,67.62
2018-08-22T22:40:37.507Z,67.71
2018-08-22T22:43:10.557Z,67.73
2018-08-22T22:45:38.719Z,67.21
2018-08-22T22:48:07.525Z,67.67
2018-08-22T22:50:36.183Z,67.34
2018-08-22T22:53:06.257Z,68.10
2018-08-22T22:55:34.418Z,68.21
2018-08-22T22:58:03.640Z,68.72
2018-08-22T23:00:32.329Z,68.15
2018-08-22T23:03:07.116Z,68.04
2018-08-22T23:05:35.292Z,68.71
2018-08-22T23:08:03.693Z,69.02
2018-08-22T23:10:32.178Z,68.84
2018-08-22T23:13:00.697Z,68.68
2018-08-22T23:15:30.119Z,69.38
2018-08-22T23:17:59.405Z,68.84
2018-08-22T23:20:36.634Z,68.79
2018-08-22T23:23:22.084Z,69.07
2018-08-22T23:25:50.554Z,68.96
2018-08-22T23:28:19.034Z,69.53
2018-08-22T23:30:47.836Z,69.66
2018-08-22T23:33:16.226Z,69.01
2018-08-22T23:35:44.705Z,69.63
2018-08-22T23:38:18.656Z,69.01
2018-08-22T23:40:48.289Z,69.44
2018-08-22T23:43:16.817Z,70.06
2018-08-22T23:45:57.616Z,70.01
2018-08-22T23:48:31.385Z,69.51
2018-08-22T23:51:01.402Z,69.85
2018-08-22T23:53:37.088Z,70.12
2018-08-22T23:56:16.065Z,69.66
2018-08-22T23:58:45.657Z,69.72
